Time;durP1;ratioP1;P1;durP2;ratioP2;P2;SDS_P1;SDS_P2;PMS_P1;PMS_P2;Temp;Humidity;BMP_temperature;BMP_pressure;BME280_temperature;BME280_humidity;BME280_pressure;Samples;Min_cycle;Max_cycle;Signal;HPM_P1;HPM_P2
2023/02/03 00:00:04;;;;;;;3.77;2.90;;;;;;;6.16;51.83;99774.78;5073606;28;20035;-80
2023/02/03 00:02:29;;;;;;;3.53;2.78;;;;;;;5.38;52.06;99637.94;5073681;28;20069;-79
2023/02/03 00:04:55;;;;;;;3.07;2.57;;;;;;;5.98;51.78;99738.84;5073658;28;20028;-79
2023/02/03 00:07:21;;;;;;;2.73;2.30;;;;;;;6.18;51.83;99770.22;5089091;28;20055;-80
2023/02/03 00:09:46;;;;;;;3.05;2.67;;;;;;;6.04;51.49;99743.50;5072171;28;20027;-79
2023/02/03 00:12:12;;;;;;;2.90;2.38;;;;;;;6.20;51.89;99769.09;5073244;28;20103;-79
2023/02/03 00:14:38;;;;;;;2.60;2.23;;;;;;;5.67;51.26;99695.44;5073227;28;20031;-79
2023/02/03 00:17:04;;;;;;;4.03;2.35;;;;;;;6.00;51.21;99739.50;5073315;28;20028;-79
2023/02/03 00:19:30;;;;;;;3.35;2.30;;;;;;;5.90;51.45;99730.84;5077814;28;20064;-79
2023/02/03 00:21:55;;;;;;;2.47;2.28;;;;;;;5.81;51.18;99718.56;5095177;28;20056;-79
2023/02/03 00:24:22;;;;;;;3.70;2.28;;;;;;;6.15;51.58;99757.38;5073446;28;20032;-79
2023/02/03 00:26:48;;;;;;;4.10;3.60;;;;;;;5.66;51.76;99680.69;5072087;28;20032;-79
2023/02/03 00:29:14;;;;;;;3.67;3.05;;;;;;;6.07;51.36;99739.75;5073083;28;20024;-80
2023/02/03 00:31:40;;;;;;;4.00;2.63;;;;;;;5.68;51.99;99684.81;5073144;28;20409;-80
2023/02/03 00:34:06;;;;;;;3.55;2.85;;;;;;;6.11;51.71;99753.41;5073009;28;20505;-80
2023/02/03 00:36:31;;;;;;;3.73;2.70;;;;;;;5.67;51.79;99683.19;5073029;28;20035;-79
2023/02/03 00:38:57;;;;;;;3.67;2.70;;;;;;;6.08;51.40;99767.63;5071743;28;20028;-79
2023/02/03 00:41:22;;;;;;;3.20;2.83;;;;;;;6.13;51.98;99746.22;5072751;28;20021;-79
2023/02/03 00:43:48;;;;;;;3.10;2.72;;;;;;;5.88;51.96;99701.28;5073051;28;20032;-80
2023/02/03 00:46:14;;;;;;;3.47;2.90;;;;;;;6.13;51.69;99767.19;5072810;28;20489;-80
2023/02/03 00:48:40;;;;;;;3.45;2.67;;;;;;;6.12;52.07;99755.88;5072759;28;20032;-79
2023/02/03 00:51:06;;;;;;;3.50;2.70;;;;;;;6.13;52.06;99760.16;5072796;28;20486;-79
2023/02/03 00:53:31;;;;;;;2.93;2.50;;;;;;;5.69;52.04;99691.72;5072911;28;20066;-79
2023/02/03 00:55:57;;;;;;;3.10;2.50;;;;;;;5.70;51.98;99695.97;5071206;28;20035;-79
2023/02/03 00:58:22;;;;;;;3.70;3.40;;;;;;;5.81;51.79;99715.13;5071126;28;20028;-80
2023/02/03 01:00:47;;;;;;;2.83;2.63;;;;;;;5.78;51.68;99704.91;5072339;28;20042;-79
2023/02/03 01:03:13;;;;;;;3.80;3.03;;;;;;;5.43;51.92;99641.75;5072537;28;20032;-80
2023/02/03 01:05:38;;;;;;;3.83;2.83;;;;;;;5.89;51.84;99715.22;5072479;28;20025;-79
2023/02/03 01:08:04;;;;;;;3.78;3.15;;;;;;;5.64;51.86;99662.50;5072556;28;20028;-80
2023/02/03 01:10:29;;;;;;;4.70;3.40;;;;;;;5.66;51.99;99655.31;5072670;28;20077;-80
2023/02/03 01:12:55;;;;;;;5.07;3.57;;;;;;;6.21;51.90;99735.84;5072407;28;20433;-79
2023/02/03 01:15:21;;;;;;;5.32;3.47;;;;;;;5.69;51.66;99662.91;5072246;28;20025;-79
2023/02/03 01:17:46;;;;;;;4.40;3.10;;;;;;;6.03;52.17;99706.94;5072182;28;20032;-79
2023/02/03 01:20:12;;;;;;;4.25;3.00;;;;;;;5.70;52.20;99661.09;5072063;28;20056;-80
2023/02/03 01:22:38;;;;;;;3.15;2.85;;;;;;;5.70;52.34;99663.72;5072163;28;20035;-79
2023/02/03 01:25:04;;;;;;;4.03;3.15;;;;;;;6.15;52.02;99725.94;5072267;28;20036;-80
2023/02/03 01:27:31;;;;;;;3.65;3.20;;;;;;;5.75;52.47;99671.97;5072119;28;20112;-79
2023/02/03 01:29:56;;;;;;;3.97;3.13;;;;;;;6.05;52.65;99739.09;5071977;28;20064;-79
2023/02/03 01:32:22;;;;;;;3.67;3.33;;;;;;;5.62;52.64;99685.41;5071854;28;20519;-79
2023/02/03 01:34:47;;;;;;;5.68;3.45;;;;;;;5.56;52.78;99695.63;5071186;28;20024;-79
2023/02/03 01:37:16;;;;;;;4.77;3.30;;;;;;;5.24;52.60;99643.63;5072125;28;20025;-79
2023/02/03 01:39:41;;;;;;;4.93;3.73;;;;;;;5.29;52.42;99657.94;5071211;28;20055;-80
2023/02/03 01:42:09;;;;;;;3.80;3.30;;;;;;;5.33;53.05;99675.00;5072938;28;20493;-79
2023/02/03 01:44:44;;;;;;;5.47;3.80;;;;;;;5.78;52.89;99742.44;5071947;28;20024;-79
2023/02/03 01:47:21;;;;;;;4.55;3.45;;;;;;;5.73;52.69;99732.38;5071625;28;20418;-79
2023/02/03 01:49:54;;;;;;;5.83;3.80;;;;;;;5.64;53.27;99708.81;5087214;28;20119;-79
2023/02/03 01:52:20;;;;;;;3.30;3.00;;;;;;;5.53;52.76;99688.03;5070315;28;20028;-79
2023/02/03 01:54:47;;;;;;;4.00;3.47;;;;;;;5.91;52.88;99750.00;5071531;28;20039;-79
2023/02/03 01:57:20;;;;;;;3.57;3.03;;;;;;;5.88;52.74;99737.97;5071616;28;20113;-80
2023/02/03 01:59:48;;;;;;;3.77;3.27;;;;;;;5.88;52.40;99721.44;5071461;28;20086;-80
2023/02/03 02:02:13;;;;;;;5.00;3.10;;;;;;;4.85;52.74;99554.72;5071557;28;20493;-80
2023/02/03 02:04:51;;;;;;;3.83;2.83;;;;;;;5.93;52.84;99729.72;5071430;28;20078;-79
2023/02/03 02:07:16;;;;;;;4.23;2.97;;;;;;;5.68;52.73;99691.84;5071441;28;20509;-80
2023/02/03 02:09:44;;;;;;;4.10;3.20;;;;;;;5.45;52.89;99673.03;5070099;28;20086;-79
2023/02/03 02:12:12;;;;;;;3.50;3.03;;;;;;;5.58;52.39;99691.06;5071414;28;20024;-79
2023/02/03 02:14:39;;;;;;;5.10;3.80;;;;;;;5.81;52.71;99744.75;5071393;28;20441;-80
2023/02/03 02:17:22;;;;;;;3.63;3.13;;;;;;;5.23;52.80;99652.44;5071254;28;20463;-79
2023/02/03 02:20:19;;;;;;;3.67;3.30;;;;;;;5.67;52.92;99719.84;5086592;28;20040;-79
2023/02/03 02:23:16;;;;;;;4.47;3.00;;;;;;;5.66;52.83;99727.84;5071479;28;20029;-80
2023/02/03 02:26:09;;;;;;;4.00;3.23;;;;;;;5.86;52.74;99766.13;5071363;28;20029;-79
2023/02/03 02:28:35;;;;;;;4.23;3.27;;;;;;;5.84;52.76;99773.28;5069944;28;20489;-79
2023/02/03 02:31:10;;;;;;;5.33;3.90;;;;;;;5.81;52.75;99778.00;5086772;28;20042;-80
2023/02/03 02:33:57;;;;;;;5.05;3.75;;;;;;;5.87;52.99;99772.19;5070003;28;20062;-79
2023/02/03 02:36:57;;;;;;;3.33;3.03;;;;;;;5.80;53.34;99784.19;5071143;28;20091;-79
2023/02/03 02:39:29;;;;;;;4.37;3.30;;;;;;;5.78;52.61;99796.63;5070981;28;20024;-79
2023/02/03 02:42:13;;;;;;;3.72;3.30;;;;;;;5.36;53.46;99752.44;5070875;28;20048;-79
2023/02/03 02:44:43;;;;;;;4.63;3.97;;;;;;;5.68;52.91;99801.88;5079509;28;20044;-79
2023/02/03 02:47:18;;;;;;;10.90;6.60;;;;;;;5.45;52.79;99767.31;5094067;28;20103;-78
2023/02/03 02:49:53;;;;;;;9.40;5.77;;;;;;;5.75;53.24;99823.94;5076305;28;20028;-80
2023/02/03 02:52:22;;;;;;;4.63;3.90;;;;;;;5.68;53.14;99807.94;5074735;28;20062;-78
2023/02/03 02:54:52;;;;;;;3.70;3.35;;;;;;;5.48;53.37;99767.03;5074817;28;20086;-79
2023/02/03 02:57:20;;;;;;;4.77;3.83;;;;;;;5.27;53.13;99733.16;5074877;28;20081;-79
2023/02/03 02:59:46;;;;;;;6.13;3.13;;;;;;;5.91;52.92;99813.72;5075027;28;20032;-80
2023/02/03 03:02:12;;;;;;;5.10;3.53;;;;;;;5.51;52.97;99742.34;5074636;28;20024;-79
2023/02/03 03:04:38;;;;;;;4.90;3.77;;;;;;;5.65;52.76;99794.31;5074707;28;20036;-79
2023/02/03 03:07:13;;;;;;;5.37;3.50;;;;;;;5.43;53.03;99743.88;5074727;28;20455;-80
2023/02/03 03:09:43;;;;;;;3.37;3.07;;;;;;;5.84;53.06;99807.34;5074891;28;20024;-79
2023/02/03 03:12:17;;;;;;;5.47;4.20;;;;;;;5.38;53.36;99730.38;5074575;28;20038;-79
2023/02/03 03:14:49;;;;;;;5.47;4.70;;;;;;;5.52;52.82;99759.72;5074633;28;20033;-79
2023/02/03 03:17:22;;;;;;;8.63;5.20;;;;;;;5.56;53.05;99764.53;5073229;28;20460;-80
2023/02/03 03:19:52;;;;;;;10.57;5.63;;;;;;;5.53;53.39;99771.84;5074537;28;20090;-79
2023/02/03 03:22:25;;;;;;;14.77;8.63;;;;;;;5.48;53.36;99777.50;5074445;28;20420;-79
2023/02/03 03:24:59;;;;;;;7.87;4.93;;;;;;;5.91;53.56;99846.97;5074365;28;20032;-79
2023/02/03 03:27:34;;;;;;;6.20;3.83;;;;;;;5.78;53.41;99826.25;5074474;28;20122;-79
2023/02/03 03:30:31;;;;;;;5.60;4.63;;;;;;;5.89;53.56;99843.63;5074264;28;20032;-79
2023/02/03 03:32:57;;;;;;;5.33;4.40;;;;;;;5.81;53.70;99836.47;5073728;28;20051;-79
2023/02/03 03:35:27;;;;;;;7.03;4.30;;;;;;;5.62;53.93;99818.16;5074506;28;20025;-79
2023/02/03 03:38:04;;;;;;;5.00;3.60;;;;;;;5.25;53.94;99736.88;5074103;28;20507;-80
2023/02/03 03:40:34;;;;;;;6.77;3.50;;;;;;;5.82;53.65;99822.41;5074042;28;20493;-79
2023/02/03 03:43:09;;;;;;;4.63;3.42;;;;;;;5.47;53.75;99788.94;5074059;28;20028;-79
2023/02/03 03:45:44;;;;;;;7.40;3.77;;;;;;;5.82;54.19;99853.84;5074140;28;20059;-79
2023/02/03 03:48:20;;;;;;;4.25;3.45;;;;;;;5.88;53.83;99848.03;5074008;28;20025;-79
2023/02/03 03:50:52;;;;;;;4.38;3.25;;;;;;;5.89;54.09;99864.59;5074134;28;20099;-79
2023/02/03 03:53:19;;;;;;;3.60;3.30;;;;;;;5.56;54.10;99821.31;5073707;28;20607;-80
2023/02/03 03:55:50;;;;;;;4.75;3.63;;;;;;;5.91;53.90;99870.53;5072583;28;20127;-79
2023/02/03 03:58:30;;;;;;;3.80;2.83;;;;;;;5.63;53.97;99830.28;5073019;28;20032;-79
2023/02/03 04:01:01;;;;;;;4.03;3.03;;;;;;;5.87;53.89;99869.13;5073525;28;20025;-79
2023/02/03 04:03:38;;;;;;;4.73;3.80;;;;;;;5.77;54.29;99868.31;5072138;28;20413;-80
2023/02/03 04:06:04;;;;;;;7.70;3.80;;;;;;;5.69;54.01;99848.88;5072174;28;20028;-79
2023/02/03 04:08:30;;;;;;;5.33;3.57;;;;;;;5.74;54.14;99875.50;5072275;28;20020;-79
2023/02/03 04:10:55;;;;;;;4.90;3.13;;;;;;;5.84;54.09;99887.75;5073478;28;20042;-80
2023/02/03 04:13:20;;;;;;;4.30;3.23;;;;;;;5.75;54.41;99876.31;5072112;28;20028;-79
2023/02/03 04:15:46;;;;;;;4.93;2.77;;;;;;;5.23;54.28;99781.53;5072036;28;20028;-79
2023/02/03 04:18:13;;;;;;;5.17;3.27;;;;;;;5.33;54.45;99826.03;5073409;28;20083;-79
2023/02/03 04:20:39;;;;;;;4.07;3.07;;;;;;;5.72;54.34;99880.03;5073190;28;20080;-79
2023/02/03 04:23:05;;;;;;;3.88;2.75;;;;;;;5.52;54.48;99857.44;5073215;28;20515;-79
2023/02/03 04:25:30;;;;;;;2.97;2.30;;;;;;;5.59;53.92;99865.56;5073489;28;20471;-79
2023/02/03 04:27:55;;;;;;;3.10;2.70;;;;;;;5.54;53.96;99852.91;5073423;28;20099;-79
2023/02/03 04:30:21;;;;;;;3.20;2.47;;;;;;;5.67;53.79;99879.63;5073226;28;20065;-79
2023/02/03 04:32:47;;;;;;;4.90;3.15;;;;;;;5.70;53.87;99891.63;5073197;28;20026;-79
2023/02/03 04:35:12;;;;;;;3.07;2.23;;;;;;;5.88;53.94;99900.44;5071829;28;20070;-79
2023/02/03 04:37:38;;;;;;;5.43;4.00;;;;;;;5.66;54.08;99862.25;5072998;28;20035;-80
2023/02/03 04:40:04;;;;;;;3.30;2.50;;;;;;;5.77;54.08;99876.19;5071685;28;20413;-79
2023/02/03 04:42:29;;;;;;;4.10;2.80;;;;;;;5.14;53.39;99769.22;5072103;28;20098;-79
2023/02/03 04:44:55;;;;;;;6.53;3.40;;;;;;;5.81;53.81;99890.66;5072904;28;20042;-79
2023/02/03 04:47:20;;;;;;;3.00;2.70;;;;;;;5.69;53.28;99858.53;5072739;28;20389;-79
2023/02/03 04:49:45;;;;;;;3.73;2.67;;;;;;;5.48;53.43;99848.22;5071566;28;20420;-79
2023/02/03 04:52:12;;;;;;;3.17;2.87;;;;;;;5.99;53.06;99923.13;5072717;28;20062;-79
2023/02/03 04:54:37;;;;;;;5.55;3.17;;;;;;;5.93;53.24;99913.16;5072780;28;20021;-79
2023/02/03 04:57:04;;;;;;;4.13;3.40;;;;;;;5.45;52.81;99822.31;5072659;28;20020;-80
2023/02/03 04:59:29;;;;;;;4.47;3.30;;;;;;;6.01;52.78;99916.78;5072541;28;20012;-79
2023/02/03 05:01:55;;;;;;;8.60;5.13;;;;;;;5.70;52.54;99886.38;5072606;28;20416;-80
2023/02/03 05:04:20;;;;;;;5.30;3.20;;;;;;;6.03;53.06;99920.06;5072564;28;20554;-79
2023/02/03 05:06:46;;;;;;;4.70;3.78;;;;;;;6.15;52.95;99946.97;5072444;28;20024;-80
2023/02/03 05:09:11;;;;;;;4.87;3.30;;;;;;;6.15;52.29;99946.97;5071708;28;20401;-79
2023/02/03 05:11:37;;;;;;;3.78;2.83;;;;;;;5.47;52.81;99862.28;5072141;28;20043;-79
2023/02/03 05:14:02;;;;;;;4.83;2.97;;;;;;;5.92;52.75;99922.81;5072087;28;20031;-79
2023/02/03 05:16:27;;;;;;;3.17;2.67;;;;;;;5.41;52.70;99839.25;5072287;28;20030;-80
2023/02/03 05:18:53;;;;;;;3.07;2.53;;;;;;;5.41;52.62;99826.16;5072231;28;20025;-79
2023/02/03 05:21:19;;;;;;;3.37;2.70;;;;;;;5.50;52.45;99835.81;5070639;28;20043;-80
2023/02/03 05:23:44;;;;;;;3.40;3.10;;;;;;;5.77;52.20;99887.50;5071920;28;20016;-80
2023/02/03 05:26:10;;;;;;;5.57;2.80;;;;;;;6.15;52.39;99946.97;5072039;28;20515;-79
2023/02/03 05:28:35;;;;;;;3.83;2.70;;;;;;;5.87;52.42;99914.50;5070791;28;20025;-79
2023/02/03 05:31:01;;;;;;;3.37;2.77;;;;;;;5.92;52.47;99932.47;5071733;28;20028;-80
2023/02/03 05:33:28;;;;;;;3.13;2.40;;;;;;;6.13;52.37;99972.50;5071956;28;20472;-79
2023/02/03 05:35:53;;;;;;;3.60;2.73;;;;;;;6.08;52.30;99968.63;5071829;28;20108;-80
2023/02/03 05:38:19;;;;;;;3.97;2.87;;;;;;;6.16;52.52;99994.97;5071880;28;20100;-80
2023/02/03 05:43:31;;;;;;;3.45;2.50;;;;;;;6.09;52.46;99993.88;5072188;28;20482;-79
2023/02/03 05:46:04;;;;;;;4.70;2.57;;;;;;;6.10;52.48;99991.13;5071773;28;20038;-79
2023/02/03 05:48:30;;;;;;;6.73;2.87;;;;;;;6.04;52.44;99989.88;5070365;28;20030;-79
2023/02/03 05:50:56;;;;;;;5.17;3.03;;;;;;;5.91;52.72;99978.00;5087226;28;20103;-80
2023/02/03 05:53:22;;;;;;;3.70;3.07;;;;;;;6.12;52.61;99991.81;5070266;28;20085;-80
2023/02/03 05:55:47;;;;;;;5.00;4.05;;;;;;;5.88;52.70;99973.81;5070461;28;20409;-80
2023/02/03 05:58:13;;;;;;;6.17;3.67;;;;;;;6.05;52.99;99998.56;5070269;28;20024;-80
2023/02/03 06:00:38;;;;;;;4.77;3.50;;;;;;;6.05;53.06;99998.56;5071458;28;20024;-79
2023/02/03 06:03:04;;;;;;;4.10;3.70;;;;;;;5.73;52.91;99970.78;5070346;28;20031;-79
2023/02/03 06:05:31;;;;;;;5.93;3.80;;;;;;;5.52;52.88;99929.94;5078199;28;20019;-79
2023/02/03 06:07:57;;;;;;;4.80;3.77;;;;;;;5.98;53.35;100008.78;5090215;28;20048;-80
2023/02/03 06:10:23;;;;;;;6.57;3.40;;;;;;;5.63;53.12;99950.78;5091387;28;20489;-79
2023/02/03 06:12:48;;;;;;;6.63;2.97;;;;;;;5.86;53.37;99990.63;5091564;28;20035;-80
2023/02/03 06:15:14;;;;;;;3.50;3.10;;;;;;;5.96;53.04;100020.38;5091575;28;20045;-80
2023/02/03 06:17:46;;;;;;;4.27;3.47;;;;;;;5.76;53.07;99990.63;5091842;28;20404;-80
2023/02/03 06:20:15;;;;;;;5.55;3.65;;;;;;;5.70;53.05;99992.00;5089793;28;20048;-79
2023/02/03 06:22:40;;;;;;;5.13;3.60;;;;;;;5.56;53.76;99986.34;5091535;28;20024;-79
2023/02/03 06:25:06;;;;;;;5.80;4.23;;;;;;;5.94;53.58;100059.78;5090051;28;20163;-80
2023/02/03 06:27:32;;;;;;;6.50;4.90;;;;;;;5.97;53.28;100051.69;5089637;28;20020;-79
2023/02/03 06:29:57;;;;;;;7.57;4.43;;;;;;;5.46;53.43;99973.22;5090591;28;20047;-79
2023/02/03 06:32:22;;;;;;;4.33;3.23;;;;;;;5.84;53.47;100043.19;5090954;28;20216;-79
2023/02/03 06:34:48;;;;;;;6.03;5.17;;;;;;;5.54;53.66;100044.09;5089817;28;20519;-79
2023/02/03 06:37:14;;;;;;;8.00;6.53;;;;;;;5.48;53.59;99997.47;5089391;28;20020;-79
2023/02/03 06:39:39;;;;;;;6.47;5.10;;;;;;;5.47;53.86;100006.31;5088883;28;20020;-79
2023/02/03 06:42:05;;;;;;;9.33;6.53;;;;;;;5.97;53.81;100071.81;5088986;28;20488;-79
2023/02/03 06:44:30;;;;;;;9.50;7.20;;;;;;;5.67;53.82;100015.03;5106772;28;20031;-79
2023/02/03 06:46:57;;;;;;;12.07;8.67;;;;;;;5.32;53.69;99960.50;5109029;28;20030;-79
2023/02/03 06:49:23;;;;;;;7.93;6.30;;;;;;;6.07;53.54;100080.53;5090864;28;20016;-79
2023/02/03 06:51:48;;;;;;;8.10;6.65;;;;;;;5.78;53.51;100035.88;5089756;28;20023;-79
2023/02/03 06:54:14;;;;;;;8.40;6.57;;;;;;;5.69;53.69;100019.16;5091284;28;20024;-79
2023/02/03 06:56:39;;;;;;;10.40;7.40;;;;;;;5.56;53.90;100020.38;5091292;28;20024;-79
2023/02/03 06:59:05;;;;;;;7.67;6.87;;;;;;;6.01;53.73;100083.69;5091000;28;20112;-79
2023/02/03 07:01:30;;;;;;;8.70;6.67;;;;;;;5.65;53.77;100032.66;5090820;28;20035;-79
2023/02/03 07:03:57;;;;;;;8.20;6.30;;;;;;;5.95;54.05;100094.72;5089664;28;20504;-79
2023/02/03 07:06:28;;;;;;;9.68;5.85;;;;;;;5.94;53.50;100086.00;5089435;28;20020;-79
2023/02/03 07:08:55;;;;;;;10.03;6.57;;;;;;;5.98;53.71;100097.06;5089701;28;20030;-78
2023/02/03 07:11:21;;;;;;;9.67;6.70;;;;;;;5.90;54.19;100075.91;5088682;28;20801;-79
2023/02/03 07:13:46;;;;;;;10.63;7.97;;;;;;;5.42;53.67;100009.31;5109886;28;20028;-79
2023/02/03 07:16:12;;;;;;;7.80;6.63;;;;;;;5.96;53.91;100106.84;5100928;28;20057;-79
2023/02/03 07:18:37;;;;;;;10.87;8.00;;;;;;;5.68;53.94;100067.28;5081730;28;20100;-79
2023/02/03 07:21:04;;;;;;;7.37;4.87;;;;;;;5.17;53.69;99978.34;5075034;28;20036;-79
2023/02/03 07:23:29;;;;;;;5.80;4.47;;;;;;;5.96;53.94;100112.94;5093313;28;20024;-79
2023/02/03 07:25:59;;;;;;;7.07;4.73;;;;;;;5.89;53.89;100092.56;5087681;28;20047;-80
2023/02/03 07:28:24;;;;;;;8.47;5.77;;;;;;;5.95;53.88;100099.97;5092481;28;20024;-79
2023/02/03 07:30:49;;;;;;;6.73;5.10;;;;;;;5.80;53.89;100083.72;5090317;28;20023;-79
2023/02/03 07:33:15;;;;;;;6.17;4.77;;;;;;;5.64;53.91;100054.59;5084919;28;20020;-79
2023/02/03 07:35:40;;;;;;;8.77;6.37;;;;;;;5.57;53.86;100025.50;5093685;28;20039;-79
2023/02/03 07:38:06;;;;;;;8.80;6.23;;;;;;;5.87;53.84;100079.59;5091506;28;20032;-79
2023/02/03 07:40:31;;;;;;;8.93;7.03;;;;;;;5.54;53.58;100011.84;5090179;28;20016;-79
2023/02/03 07:42:57;;;;;;;7.28;5.47;;;;;;;6.22;53.21;100102.75;5093740;28;20020;-79
2023/02/03 07:45:23;;;;;;;7.23;5.33;;;;;;;5.68;53.38;100019.31;5092682;28;20024;-80
2023/02/03 07:47:49;;;;;;;8.35;5.80;;;;;;;5.74;52.99;100035.31;5084948;28;20020;-80
2023/02/03 07:50:14;;;;;;;7.60;6.50;;;;;;;6.22;53.34;100115.88;5093643;28;20511;-79
2023/02/03 07:52:40;;;;;;;10.13;5.28;;;;;;;6.00;53.04;100087.28;5083617;28;20524;-79
2023/02/03 07:55:06;;;;;;;7.50;5.75;;;;;;;5.82;53.46;100054.78;5105431;28;20035;-79
2023/02/03 07:57:31;;;;;;;7.00;5.33;;;;;;;6.25;53.27;100139.19;5091748;28;20595;-79
2023/02/03 07:59:57;;;;;;;11.50;7.53;;;;;;;5.71;52.84;100048.69;5092820;28;20056;-78
2023/02/03 08:02:22;;;;;;;6.53;5.45;;;;;;;5.94;53.08;100087.78;5112890;28;20385;-79
2023/02/03 08:04:47;;;;;;;7.03;5.25;;;;;;;6.15;52.87;100103.44;5096631;28;20100;-79
2023/02/03 08:07:13;;;;;;;9.23;6.20;;;;;;;6.37;52.65;100132.88;5093188;28;20028;-79
2023/02/03 08:09:38;;;;;;;9.95;6.78;;;;;;;6.44;52.58;100134.94;5090724;28;20093;-80
2023/02/03 08:12:04;;;;;;;6.90;5.32;;;;;;;6.37;52.56;100119.75;5093051;28;20020;-79
2023/02/03 08:14:30;;;;;;;9.75;6.25;;;;;;;6.35;52.27;100097.25;5093462;28;20457;-79
2023/02/03 08:16:56;;;;;;;6.45;5.50;;;;;;;6.70;52.06;100120.34;5093318;28;20020;-79
2023/02/03 08:19:21;;;;;;;8.50;5.85;;;;;;;6.35;51.43;100043.00;5090442;28;20517;-80
2023/02/03 08:21:46;;;;;;;7.03;5.10;;;;;;;6.96;51.21;100136.34;5093003;28;20491;-79
2023/02/03 08:24:12;;;;;;;6.00;4.22;;;;;;;6.69;51.05;100106.38;5092482;28;20020;-80
2023/02/03 08:26:37;;;;;;;7.10;6.20;;;;;;;6.94;50.86;100127.75;5091616;28;20493;-80
2023/02/03 08:29:03;;;;;;;7.32;5.68;;;;;;;6.56;50.65;100058.59;5101557;28;20035;-80
2023/02/03 08:31:29;;;;;;;8.27;4.50;;;;;;;7.02;51.08;100125.25;5112214;28;20027;-79
2023/02/03 08:33:54;;;;;;;7.03;5.15;;;;;;;6.97;50.58;100117.81;5095581;28;20059;-80
2023/02/03 08:36:20;;;;;;;7.05;5.28;;;;;;;6.49;50.78;100035.69;5092962;28;20150;-80
2023/02/03 08:38:45;;;;;;;7.15;4.82;;;;;;;7.19;50.64;100144.72;5092621;28;20058;-80
2023/02/03 08:41:13;;;;;;;7.65;5.57;;;;;;;7.10;50.52;100135.06;5092305;28;20027;-80
2023/02/03 08:43:39;;;;;;;9.18;5.93;;;;;;;6.84;50.47;100098.06;5092597;28;20050;-79
2023/02/03 08:46:07;;;;;;;7.20;4.85;;;;;;;7.27;50.57;100157.97;5089330;28;20154;-79
2023/02/03 08:48:33;;;;;;;6.82;5.05;;;;;;;6.78;50.08;100077.66;5088519;28;20506;-79
2023/02/03 08:50:59;;;;;;;4.63;4.07;;;;;;;7.07;50.61;100137.97;5087545;28;20018;-79
2023/02/03 08:53:24;;;;;;;8.13;5.68;;;;;;;7.02;50.07;100117.38;5083263;28;20020;-79
2023/02/03 08:55:50;;;;;;;6.40;4.40;;;;;;;6.65;49.11;100049.88;5089898;28;20028;-79
2023/02/03 08:58:15;;;;;;;5.70;3.88;;;;;;;7.34;49.09;100141.50;5091663;28;20496;-80
2023/02/03 09:00:42;;;;;;;3.83;3.40;;;;;;;7.45;48.57;100160.72;5088960;28;20043;-79
2023/02/03 09:03:07;;;;;;;6.50;3.53;;;;;;;7.57;49.00;100160.41;5090588;28;20020;-80
2023/02/03 09:05:33;;;;;;;9.88;4.70;;;;;;;7.68;48.50;100172.53;5090531;28;20027;-80
2023/02/03 09:07:59;;;;;;;6.65;3.53;;;;;;;7.52;48.31;100109.25;5096756;28;20508;-79
2023/02/03 09:10:25;;;;;;;4.95;3.58;;;;;;;7.43;47.80;100068.06;5090852;28;20027;-79
2023/02/03 09:12:51;;;;;;;4.90;3.55;;;;;;;7.73;47.56;100109.00;5106348;28;20032;-78
2023/02/03 09:15:16;;;;;;;4.65;4.10;;;;;;;8.16;47.53;100164.41;5107813;28;20048;-80
2023/02/03 09:17:42;;;;;;;6.45;4.22;;;;;;;8.16;46.92;100132.03;5107866;28;20024;-80
2023/02/03 09:20:08;;;;;;;8.77;4.88;;;;;;;8.44;46.98;100160.00;5088777;28;20040;-80
2023/02/03 09:22:33;;;;;;;5.20;3.92;;;;;;;8.02;46.80;100085.19;5087198;28;20019;-80
2023/02/03 09:24:59;;;;;;;5.10;3.72;;;;;;;5.97;46.34;99757.31;5089620;28;20501;-79
2023/02/03 09:27:24;;;;;;;7.05;4.70;;;;;;;8.47;46.72;100157.06;5086929;28;20025;-80
2023/02/03 09:29:49;;;;;;;6.30;5.30;;;;;;;7.93;46.52;100071.13;5089107;28;20024;-79
2023/02/03 09:32:15;;;;;;;6.30;4.68;;;;;;;8.35;46.64;100146.91;5089459;28;20055;-80
2023/02/03 09:34:40;;;;;;;5.20;3.50;;;;;;;8.10;46.17;100107.13;5091985;28;20034;-80
2023/02/03 09:37:07;;;;;;;4.15;3.28;;;;;;;8.10;46.09;100120.28;5089084;28;20111;-80
2023/02/03 09:39:32;;;;;;;5.03;3.13;;;;;;;8.05;45.62;100114.66;5087918;28;20016;-80
2023/02/03 09:42:07;;;;;;;6.20;4.90;;;;;;;8.28;46.00;100141.38;5090472;28;20016;-80
2023/02/03 09:44:38;;;;;;;7.00;4.13;;;;;;;8.34;46.30;100137.38;5091699;28;20028;-80
2023/02/03 09:47:12;;;;;;;6.28;5.05;;;;;;;7.71;46.08;100024.22;5082567;28;20023;-80
2023/02/03 09:49:52;;;;;;;5.38;4.50;;;;;;;8.38;46.69;100128.19;5083495;28;20035;-80
2023/02/03 09:52:24;;;;;;;5.32;4.18;;;;;;;8.08;46.34;100056.50;5089748;28;20444;-80
2023/02/03 09:55:03;;;;;;;4.28;3.80;;;;;;;8.45;46.49;100110.84;5101870;27;20077;-80
2023/02/03 09:57:55;;;;;;;6.25;3.80;;;;;;;8.10;44.77;100074.75;5087481;28;20024;-80
2023/02/03 10:00:46;;;;;;;4.90;3.88;;;;;;;8.49;45.21;100112.19;5088757;28;20051;-81
2023/02/03 10:03:17;;;;;;;5.43;3.53;;;;;;;8.63;44.60;100116.09;5091012;28;20477;-80
2023/02/03 10:05:46;;;;;;;3.67;3.13;;;;;;;8.76;44.85;100124.44;5089813;28;20169;-79
2023/02/03 10:08:39;;;;;;;3.03;2.63;;;;;;;8.33;43.31;100038.34;5087975;28;20544;-80
2023/02/03 10:11:38;;;;;;;4.95;3.60;;;;;;;8.68;44.33;100105.94;5087921;28;20140;-80
2023/02/03 10:14:12;;;;;;;5.03;3.47;;;;;;;8.78;43.69;100111.94;5090106;28;20024;-79
2023/02/03 10:17:15;;;;;;;3.83;2.85;;;;;;;8.78;42.69;100090.88;5083392;28;20110;-79
2023/02/03 10:19:47;;;;;;;;;;;;;;;8.55;43.12;100109.78;5088684;28;20156;-80
2023/02/03 10:22:16;;;;;;;;;;;;;;;8.78;43.47;100096.97;5089533;28;19916;-79
2023/02/03 10:24:47;;;;;;;3.83;3.42;;;;;;;8.93;43.64;100114.88;5090860;28;20025;-79
2023/02/03 10:27:19;;;;;;;5.15;3.50;;;;;;;8.96;42.97;100106.66;5088357;28;20030;-79
2023/02/03 10:29:59;;;;;;;3.80;3.10;;;;;;;8.49;43.02;100036.69;5090651;28;20020;-80
2023/02/03 10:32:26;;;;;;;7.05;3.67;;;;;;;8.36;43.57;100027.53;5089487;28;20081;-80
2023/02/03 10:34:52;;;;;;;4.80;3.47;;;;;;;8.83;43.74;100101.78;5090171;28;20416;-80
2023/02/03 10:37:35;;;;;;;7.13;5.40;;;;;;;8.45;43.23;100045.03;5087183;28;20027;-81
2023/02/03 10:40:01;;;;;;;6.18;4.57;;;;;;;8.47;43.78;100053.63;5087542;28;20032;-80
2023/02/03 10:43:46;;;;;;;4.00;2.88;;;;;;;8.61;43.67;100066.22;5100055;28;20390;-80
2023/02/03 10:45:15;;;;;;;3.33;2.70;;;;;;;8.80;43.39;100086.28;5089500;28;20032;-79
2023/02/03 10:47:46;;;;;;;3.65;2.83;;;;;;;8.91;43.35;100115.00;5086125;28;20032;-81
2023/02/03 10:50:18;;;;;;;2.92;2.40;;;;;;;8.96;42.74;100111.94;5078602;28;20052;-80
2023/02/03 10:52:43;;;;;;;3.67;2.65;;;;;;;9.04;43.08;100109.34;5087025;28;20055;-80
2023/02/03 10:55:24;;;;;;;5.53;4.32;;;;;;;9.06;42.08;100107.41;5088490;28;20032;-80
2023/02/03 10:57:50;;;;;;;9.77;5.85;;;;;;;8.74;43.21;100021.06;5098047;28;20070;-80
2023/02/03 11:00:15;;;;;;;5.22;3.83;;;;;;;9.37;42.89;100098.03;5070651;28;20052;-81
2023/02/03 11:02:41;;;;;;;4.38;3.63;;;;;;;8.82;42.63;100016.69;5069625;28;20040;-80
2023/02/03 11:05:16;;;;;;;5.85;4.13;;;;;;;9.32;42.37;100092.41;5070351;28;20036;-80
2023/02/03 11:07:41;;;;;;;5.18;3.40;;;;;;;8.88;42.12;100036.31;5088391;28;20032;-80
2023/02/03 11:10:34;;;;;;;2.35;2.08;;;;;;;9.04;40.79;100077.75;5094509;28;20463;-80
2023/02/03 11:13:21;;;;;;;5.28;2.55;;;;;;;9.04;42.05;100070.69;5094641;28;20024;-80
2023/02/03 11:16:09;;;;;;;4.97;4.47;;;;;;;9.02;41.40;100066.53;5093312;28;20059;-80
2023/02/03 11:18:52;;;;;;;5.00;3.88;;;;;;;9.04;42.22;100068.03;5093356;28;20025;-80
2023/02/03 11:21:19;;;;;;;6.82;3.70;;;;;;;8.20;41.80;99968.53;5091853;28;20047;-80
2023/02/03 11:24:17;;;;;;;3.63;2.53;;;;;;;8.86;40.91;100080.41;5092000;28;20031;-80
2023/02/03 11:26:47;;;;;;;4.15;2.83;;;;;;;8.34;41.68;100022.44;5093914;28;20031;-80
2023/02/03 11:29:25;;;;;;;4.70;2.78;;;;;;;8.67;41.03;100065.63;5106711;28;20028;-80
2023/02/03 11:31:53;;;;;;;3.28;2.58;;;;;;;8.33;41.90;99994.47;5094315;28;20412;-80
2023/02/03 11:34:28;;;;;;;4.63;2.42;;;;;;;8.47;41.48;100009.72;5094311;28;20028;-80
2023/02/03 11:36:54;;;;;;;3.55;2.70;;;;;;;8.79;41.36;100064.38;5108813;28;20038;-80
2023/02/03 11:39:25;;;;;;;3.40;2.15;;;;;;;8.71;40.98;100048.53;5092795;28;20110;-80
2023/02/03 11:41:51;;;;;;;2.67;1.85;;;;;;;8.36;41.39;100014.38;5073631;28;20529;-81
2023/02/03 11:44:23;;;;;;;3.10;2.33;;;;;;;8.80;41.47;100060.78;5092939;28;20115;-80
2023/02/03 11:46:54;;;;;;;3.95;2.65;;;;;;;8.80;40.82;100054.69;5094065;28;20059;-80
2023/02/03 11:49:38;;;;;;;3.53;2.70;;;;;;;8.44;41.33;100010.00;5094176;28;20089;-80